createdAt,value
2022-08-16T00:00:04.304Z,85.58
2022-08-16T00:00:59.241Z,85.68
2022-08-16T00:01:59.878Z,85.68
2022-08-16T00:02:59.200Z,85.78
2022-08-16T00:03:59.181Z,85.53
2022-08-16T00:04:59.625Z,85.53
2022-08-16T00:05:59.172Z,85.64
2022-08-16T00:06:59.195Z,85.64
2022-08-16T00:07:59.139Z,85.53
2022-08-16T00:08:59.120Z,85.44
2022-08-16T00:09:59.102Z,85.19
2022-08-16T00:10:59.077Z,85.10
2022-08-16T00:11:59.098Z,85.10
2022-08-16T00:12:59.082Z,84.99
2022-08-16T00:13:59.053Z,84.89
2022-08-16T00:14:59.198Z,84.89
2022-08-16T00:15:59.015Z,84.89
2022-08-16T00:17:16.167Z,84.80
2022-08-16T00:17:59.036Z,84.59
2022-08-16T00:18:58.967Z,84.39
2022-08-16T00:19:58.974Z,84.29
2022-08-16T00:20:58.952Z,84.19
2022-08-16T00:22:03.009Z,84.05
2022-08-16T00:22:58.961Z,83.95
2022-08-16T00:23:58.939Z,83.85
2022-08-16T00:24:58.925Z,83.85
2022-08-16T00:26:35.976Z,83.75
2022-08-16T00:26:58.891Z,83.65
2022-08-16T00:27:58.867Z,83.55
2022-08-16T00:28:59.209Z,83.55
2022-08-16T00:30:00.601Z,83.55
2022-08-16T00:30:59.080Z,83.45
2022-08-16T00:32:05.579Z,83.59
2022-08-16T00:32:58.787Z,83.79
2022-08-16T00:33:58.795Z,83.79
2022-08-16T00:35:00.452Z,83.79
2022-08-16T00:35:58.756Z,83.69
2022-08-16T00:36:58.735Z,83.69
2022-08-16T00:37:59.552Z,83.79
2022-08-16T00:38:58.720Z,83.79
2022-08-16T00:39:59.048Z,83.89
2022-08-16T00:40:58.731Z,83.89
2022-08-16T00:41:58.671Z,83.89
2022-08-16T00:42:58.667Z,83.99
2022-08-16T00:43:58.646Z,84.09
2022-08-16T00:44:58.665Z,84.19
2022-08-16T00:46:00.785Z,84.19
2022-08-16T00:47:06.001Z,84.19
2022-08-16T00:47:58.596Z,84.29
2022-08-16T00:48:58.579Z,84.53
2022-08-16T00:49:58.566Z,84.63
2022-08-16T00:50:58.600Z,84.74
2022-08-16T00:51:58.560Z,84.83
2022-08-16T00:52:59.156Z,84.94
2022-08-16T00:53:58.550Z,85.03
2022-08-16T00:54:58.499Z,85.24
2022-08-16T00:55:58.501Z,85.33
2022-08-16T00:56:59.836Z,85.53
2022-08-16T00:58:00.734Z,85.64
2022-08-16T00:58:58.434Z,85.74
2022-08-16T00:59:59.057Z,85.74
2022-08-16T01:00:58.433Z,85.64
2022-08-16T01:01:58.422Z,85.44
2022-08-16T01:02:58.382Z,85.33
2022-08-16T01:03:58.374Z,85.33
2022-08-16T01:05:10.402Z,85.14
2022-08-16T01:05:58.407Z,84.80
2022-08-16T01:07:01.902Z,84.49
2022-08-16T01:07:59.610Z,84.39
2022-08-16T01:09:00.059Z,84.29
2022-08-16T01:09:58.308Z,84.19
2022-08-16T01:10:59.877Z,84.29
2022-08-16T01:11:58.275Z,84.29
2022-08-16T01:12:58.287Z,84.39
2022-08-16T01:13:58.240Z,84.59
2022-08-16T01:14:58.224Z,84.59
2022-08-16T01:15:58.233Z,84.63
2022-08-16T01:16:58.192Z,84.74
2022-08-16T01:17:58.225Z,84.83
2022-08-16T01:18:58.186Z,85.03
2022-08-16T01:19:58.185Z,85.24
2022-08-16T01:20:58.141Z,85.53
2022-08-16T01:21:58.147Z,85.64
2022-08-16T01:22:59.124Z,85.58
2022-08-16T01:24:01.543Z,85.48
2022-08-16T01:24:58.099Z,85.68
2022-08-16T01:26:00.257Z,85.58
2022-08-16T01:26:58.069Z,86.02
2022-08-16T01:27:58.096Z,86.63
2022-08-16T01:28:58.076Z,86.72
2022-08-16T01:29:59.487Z,86.83
2022-08-16T01:30:58.075Z,86.93
2022-08-16T01:31:58.000Z,87.02
2022-08-16T01:33:01.810Z,87.33
2022-08-16T01:33:57.980Z,87.53
2022-08-16T01:34:58.013Z,87.53
2022-08-16T01:35:57.948Z,87.53
2022-08-16T01:36:58.440Z,87.43
2022-08-16T01:37:57.936Z,87.43
2022-08-16T01:38:57.914Z,87.53
2022-08-16T01:39:57.985Z,87.53
2022-08-16T01:40:57.891Z,87.63
2022-08-16T01:41:57.861Z,87.63
2022-08-16T01:42:57.880Z,87.49
2022-08-16T01:44:01.453Z,87.39
2022-08-16T01:44:57.831Z,87.29
2022-08-16T01:45:58.319Z,87.29
2022-08-16T01:46:57.798Z,87.19
2022-08-16T01:47:57.794Z,87.08
2022-08-16T01:48:57.768Z,86.85
2022-08-16T01:50:42.576Z,86.74
2022-08-16T01:51:17.063Z,86.44
2022-08-16T01:51:57.747Z,86.44
2022-08-16T01:52:57.737Z,86.34
2022-08-16T01:53:57.782Z,86.44
2022-08-16T01:54:57.696Z,86.44
2022-08-16T01:55:57.700Z,86.34
2022-08-16T01:56:57.686Z,86.44
2022-08-16T01:57:57.653Z,86.44
2022-08-16T01:58:57.766Z,86.34
2022-08-16T01:59:57.642Z,86.44
2022-08-16T02:00:57.646Z,86.44
2022-08-16T02:02:00.002Z,86.44
2022-08-16T02:02:57.586Z,86.54
2022-08-16T02:03:58.191Z,86.44
2022-08-16T02:04:57.699Z,86.34
2022-08-16T02:05:57.545Z,86.44
2022-08-16T02:06:57.607Z,86.44
2022-08-16T02:07:57.510Z,86.44
2022-08-16T02:08:57.499Z,86.34
2022-08-16T02:09:59.456Z,86.34
2022-08-16T02:10:57.502Z,86.24
2022-08-16T02:11:57.490Z,86.24
2022-08-16T02:13:00.593Z,86.14
2022-08-16T02:13:57.451Z,85.84
2022-08-16T02:14:57.599Z,85.44
2022-08-16T02:15:57.415Z,84.94
2022-08-16T02:16:57.391Z,84.74
2022-08-16T02:17:57.430Z,84.83
2022-08-16T02:18:57.391Z,85.14
2022-08-16T02:20:00.159Z,85.38
2022-08-16T02:20:57.355Z,85.38
2022-08-16T02:22:08.281Z,85.33
2022-08-16T02:22:57.324Z,85.33
2022-08-16T02:23:57.332Z,85.44
2022-08-16T02:24:57.318Z,85.44
2022-08-16T02:25:57.330Z,85.53
2022-08-16T02:26:57.290Z,85.74
2022-08-16T02:27:57.263Z,85.84
2022-08-16T02:28:57.241Z,85.84
2022-08-16T02:30:05.693Z,85.74
2022-08-16T02:30:57.228Z,85.98
2022-08-16T02:32:03.573Z,86.18
2022-08-16T02:32:57.199Z,86.58
2022-08-16T02:33:57.173Z,87.23
2022-08-16T02:34:57.192Z,87.63
2022-08-16T02:35:58.547Z,88.18
2022-08-16T02:36:57.135Z,88.48
2022-08-16T02:37:57.124Z,88.68
2022-08-16T02:38:57.112Z,88.88
2022-08-16T02:39:57.144Z,89.12
2022-08-16T02:40:57.099Z,89.32
2022-08-16T02:41:57.073Z,89.63
2022-08-16T02:42:57.070Z,89.83
2022-08-16T02:43:57.098Z,89.93
2022-08-16T02:44:57.023Z,89.93
2022-08-16T02:45:57.033Z,89.93
2022-08-16T02:46:57.037Z,89.83
2022-08-16T02:48:01.586Z,89.83
2022-08-16T02:48:56.978Z,89.93
2022-08-16T02:49:58.962Z,89.93
2022-08-16T02:51:10.233Z,89.93
2022-08-16T02:51:56.940Z,89.93
2022-08-16T02:52:56.952Z,89.93
2022-08-16T02:53:56.908Z,89.93
2022-08-16T02:54:56.886Z,89.93
2022-08-16T02:55:56.892Z,89.93
2022-08-16T02:56:56.856Z,89.83
2022-08-16T02:57:56.848Z,89.53
2022-08-16T02:58:56.870Z,89.43
2022-08-16T02:59:56.830Z,89.39
2022-08-16T03:00:57.294Z,89.39
2022-08-16T03:01:56.835Z,89.28
2022-08-16T03:02:56.822Z,89.28
2022-08-16T03:04:39.450Z,89.43
2022-08-16T03:04:56.755Z,89.53
2022-08-16T03:05:56.737Z,89.73
2022-08-16T03:06:57.346Z,89.93
2022-08-16T03:07:56.753Z,90.03
2022-08-16T03:08:56.697Z,90.23
2022-08-16T03:09:56.697Z,90.33
2022-08-16T03:10:59.167Z,90.53
2022-08-16T03:11:56.674Z,90.73
2022-08-16T03:12:56.891Z,90.78
2022-08-16T03:13:56.929Z,90.78
2022-08-16T03:14:56.658Z,90.88
2022-08-16T03:15:56.602Z,91.08
2022-08-16T03:16:59.052Z,91.08
2022-08-16T03:17:56.594Z,91.28
2022-08-16T03:18:56.580Z,91.38
2022-08-16T03:20:00.180Z,91.38
2022-08-16T03:20:56.555Z,91.38
2022-08-16T03:21:56.534Z,91.49
2022-08-16T03:22:56.647Z,91.38
2022-08-16T03:23:56.507Z,91.28
2022-08-16T03:24:57.618Z,91.28
2022-08-16T03:25:56.469Z,91.28
2022-08-16T03:26:58.100Z,91.33
2022-08-16T03:27:56.456Z,91.42
2022-08-16T03:28:56.445Z,91.53
2022-08-16T03:29:56.447Z,91.63
2022-08-16T03:30:56.430Z,91.53
2022-08-16T03:31:56.389Z,91.53
2022-08-16T03:32:56.386Z,91.73
2022-08-16T03:33:56.382Z,91.83
2022-08-16T03:34:56.366Z,91.93
2022-08-16T03:35:57.225Z,92.03
2022-08-16T03:36:56.319Z,91.83
2022-08-16T03:38:02.389Z,91.73
2022-08-16T03:38:56.306Z,91.53
2022-08-16T03:40:02.701Z,91.42
2022-08-16T03:40:56.352Z,91.33
2022-08-16T03:41:59.587Z,91.33
2022-08-16T03:43:00.517Z,91.33
2022-08-16T03:43:56.260Z,91.22
2022-08-16T03:45:03.566Z,91.22
2022-08-16T03:45:56.231Z,91.13
2022-08-16T03:46:56.194Z,91.13
2022-08-16T03:47:58.313Z,91.22
2022-08-16T03:48:56.189Z,91.42
2022-08-16T03:49:56.177Z,91.53
2022-08-16T03:50:59.862Z,91.42
2022-08-16T03:51:56.142Z,91.33
2022-08-16T03:53:01.287Z,91.33
2022-08-16T03:53:57.781Z,91.22
2022-08-16T03:54:58.074Z,91.27
2022-08-16T03:55:56.072Z,91.37
2022-08-16T03:56:57.863Z,91.57
2022-08-16T03:57:56.038Z,91.67
2022-08-16T03:58:56.043Z,91.57
2022-08-16T03:59:56.049Z,91.47
2022-08-16T04:00:56.914Z,91.71
2022-08-16T04:01:55.981Z,92.02
2022-08-16T04:02:56.016Z,92.42
2022-08-16T04:03:55.982Z,92.52
2022-08-16T04:04:56.051Z,92.62
2022-08-16T04:05:55.958Z,92.52
2022-08-16T04:06:56.065Z,92.42
2022-08-16T04:07:55.931Z,92.26
2022-08-16T04:08:55.910Z,92.26
2022-08-16T04:09:55.886Z,92.46
2022-08-16T04:10:55.890Z,92.57
2022-08-16T04:11:55.861Z,92.57
2022-08-16T04:13:00.601Z,92.77
2022-08-16T04:14:01.461Z,92.77
2022-08-16T04:14:55.860Z,92.77
2022-08-16T04:15:55.828Z,92.57
2022-08-16T04:16:55.793Z,92.46
2022-08-16T04:17:55.799Z,92.46
2022-08-16T04:19:01.242Z,92.46
2022-08-16T04:19:58.091Z,92.26
2022-08-16T04:20:56.447Z,91.96
2022-08-16T04:21:56.689Z,91.96
2022-08-16T04:22:55.734Z,91.86
2022-08-16T04:23:55.701Z,91.86
2022-08-16T04:24:55.683Z,91.86
2022-08-16T04:25:55.710Z,91.76
2022-08-16T04:26:55.672Z,91.76
2022-08-16T04:27:56.099Z,91.71
2022-08-16T04:29:15.207Z,91.71
2022-08-16T04:30:03.281Z,91.61
2022-08-16T04:30:55.615Z,91.51
2022-08-16T04:31:57.993Z,91.61
2022-08-16T04:32:55.801Z,91.61
2022-08-16T04:33:55.581Z,91.51
2022-08-16T04:34:55.549Z,91.51
2022-08-16T04:35:55.592Z,91.17
2022-08-16T04:36:56.748Z,90.66
2022-08-16T04:37:55.505Z,90.56
2022-08-16T04:38:55.515Z,90.46
2022-08-16T04:39:57.258Z,90.16
2022-08-16T04:40:55.602Z,90.06
2022-08-16T04:41:56.846Z,89.95
2022-08-16T04:42:55.451Z,90.06
2022-08-16T04:43:55.522Z,89.95
2022-08-16T04:44:56.025Z,90.01
2022-08-16T04:46:00.890Z,90.01
2022-08-16T04:47:01.420Z,89.91
2022-08-16T04:47:56.129Z,89.91
2022-08-16T04:48:55.378Z,89.71
2022-08-16T04:49:55.368Z,89.71
2022-08-16T04:50:55.341Z,89.61
2022-08-16T04:51:55.541Z,89.51
2022-08-16T04:52:55.621Z,89.41
2022-08-16T04:53:55.340Z,89.06
2022-08-16T04:54:55.288Z,88.76
2022-08-16T04:55:55.255Z,88.66
2022-08-16T04:56:55.274Z,88.66
2022-08-16T04:57:55.238Z,88.56
2022-08-16T04:58:57.821Z,88.56
2022-08-16T04:59:55.240Z,88.66
2022-08-16T05:00:55.194Z,88.60
2022-08-16T05:01:58.263Z,88.81
2022-08-16T05:02:56.171Z,88.90
2022-08-16T05:04:00.963Z,88.81
2022-08-16T05:04:55.169Z,88.66
2022-08-16T05:05:58.903Z,88.66
2022-08-16T05:06:55.118Z,88.66
2022-08-16T05:07:59.403Z,88.76
2022-08-16T05:08:56.402Z,88.76
2022-08-16T05:09:55.067Z,88.76
2022-08-16T05:10:58.955Z,88.76
2022-08-16T05:11:57.563Z,88.76
2022-08-16T05:12:55.041Z,88.86
2022-08-16T05:13:55.082Z,88.86
2022-08-16T05:15:02.145Z,88.86
2022-08-16T05:15:55.007Z,88.86
2022-08-16T05:16:54.981Z,88.86
2022-08-16T05:17:58.739Z,88.86
2022-08-16T05:18:56.864Z,88.96
2022-08-16T05:19:57.407Z,88.86
2022-08-16T05:21:09.386Z,88.76
2022-08-16T05:21:54.910Z,88.76
2022-08-16T05:22:54.903Z,88.76
2022-08-16T05:23:58.471Z,88.96
2022-08-16T05:24:55.647Z,88.96
2022-08-16T05:25:54.863Z,88.96
2022-08-16T05:26:54.857Z,88.96
2022-08-16T05:27:54.825Z,89.06
2022-08-16T05:28:55.233Z,89.06
2022-08-16T05:30:00.729Z,89.17
2022-08-16T05:30:54.825Z,89.17
2022-08-16T05:31:54.766Z,89.17
2022-08-16T05:32:54.763Z,89.26
2022-08-16T05:33:54.757Z,89.37
2022-08-16T05:34:54.750Z,89.37
2022-08-16T05:35:55.972Z,89.47
2022-08-16T05:36:54.742Z,89.57
2022-08-16T05:37:54.712Z,89.67
2022-08-16T05:38:54.677Z,89.67
2022-08-16T05:39:55.204Z,89.57
2022-08-16T05:40:59.585Z,89.57
2022-08-16T05:41:54.663Z,89.57
2022-08-16T05:42:56.130Z,89.57
2022-08-16T05:43:59.196Z,89.67
2022-08-16T05:44:54.650Z,89.67
2022-08-16T05:45:54.618Z,89.77
2022-08-16T05:46:54.920Z,89.77
2022-08-16T05:48:00.398Z,89.81
2022-08-16T05:48:54.883Z,89.91
2022-08-16T05:49:54.560Z,90.01
2022-08-16T05:50:54.520Z,89.91
2022-08-16T05:51:54.511Z,89.87
2022-08-16T05:52:54.515Z,89.77
2022-08-16T05:53:54.481Z,89.57
2022-08-16T05:55:00.897Z,89.57
2022-08-16T05:55:54.455Z,89.47
2022-08-16T05:56:54.505Z,89.17
2022-08-16T05:57:54.436Z,88.92
2022-08-16T05:58:54.433Z,88.72
2022-08-16T05:59:59.746Z,88.62
2022-08-16T06:00:54.408Z,88.62
2022-08-16T06:01:54.499Z,88.52
2022-08-16T06:02:54.358Z,88.48
2022-08-16T06:03:54.338Z,88.38
2022-08-16T06:04:54.473Z,88.38
2022-08-16T06:05:54.718Z,88.28
2022-08-16T06:06:56.011Z,88.28
2022-08-16T06:07:59.034Z,88.03
2022-08-16T06:08:54.295Z,87.93
2022-08-16T06:09:54.314Z,87.93
2022-08-16T06:11:02.679Z,87.83
2022-08-16T06:11:54.251Z,87.59
2022-08-16T06:12:55.991Z,87.49
2022-08-16T06:13:55.341Z,87.39
2022-08-16T06:14:54.205Z,87.49
2022-08-16T06:15:54.213Z,87.55
2022-08-16T06:16:54.183Z,87.45
2022-08-16T06:17:54.173Z,87.45
2022-08-16T06:18:54.154Z,87.10
2022-08-16T06:19:54.187Z,86.90
2022-08-16T06:20:55.595Z,86.80
2022-08-16T06:21:55.148Z,86.66
2022-08-16T06:22:59.063Z,86.46
2022-08-16T06:23:54.623Z,86.26
2022-08-16T06:24:55.786Z,86.12
2022-08-16T06:25:54.053Z,86.02
2022-08-16T06:26:57.726Z,85.92
2022-08-16T06:27:58.173Z,85.72
2022-08-16T06:28:54.011Z,85.41
2022-08-16T06:29:54.023Z,85.41
2022-08-16T06:30:53.991Z,85.27
2022-08-16T06:31:53.966Z,84.97
2022-08-16T06:32:54.087Z,84.57
2022-08-16T06:33:53.959Z,84.27
2022-08-16T06:34:57.218Z,83.97
2022-08-16T06:35:55.097Z,83.67
2022-08-16T06:36:59.607Z,83.67
2022-08-16T06:37:53.892Z,83.53
2022-08-16T06:38:55.805Z,83.63
2022-08-16T06:39:53.912Z,83.53
2022-08-16T06:40:53.884Z,83.43
2022-08-16T06:41:53.833Z,83.23
2022-08-16T06:42:57.263Z,83.23
2022-08-16T06:43:53.931Z,83.03
2022-08-16T06:44:53.817Z,82.69
2022-08-16T06:45:53.812Z,81.99
2022-08-16T06:46:53.800Z,81.59
2022-08-16T06:47:56.541Z,81.48
2022-08-16T06:48:53.787Z,81.68
2022-08-16T06:49:54.180Z,81.48
2022-08-16T06:50:53.739Z,81.29
2022-08-16T06:51:53.709Z,81.18
2022-08-16T06:52:59.936Z,80.98
2022-08-16T06:53:53.703Z,80.88
2022-08-16T06:54:53.673Z,80.85
2022-08-16T06:55:54.004Z,80.65
2022-08-16T06:56:54.301Z,80.24
2022-08-16T06:57:53.620Z,80.35
2022-08-16T06:58:53.668Z,80.35
2022-08-16T06:59:58.301Z,80.04
2022-08-16T07:00:53.640Z,80.11
2022-08-16T07:01:55.107Z,79.80
2022-08-16T07:02:54.018Z,79.91
2022-08-16T07:03:55.314Z,79.41
2022-08-16T07:04:53.566Z,79.41
2022-08-16T07:05:53.922Z,79.41
2022-08-16T07:06:53.505Z,79.50
2022-08-16T07:07:54.055Z,79.50
2022-08-16T07:08:53.553Z,79.50
2022-08-16T07:09:53.486Z,79.50
2022-08-16T07:10:53.457Z,79.47
2022-08-16T07:11:53.469Z,79.36
2022-08-16T07:13:03.150Z,78.86
2022-08-16T07:14:00.476Z,78.97
2022-08-16T07:14:56.365Z,79.36
2022-08-16T07:15:53.494Z,79.17
2022-08-16T07:16:53.366Z,79.67
2022-08-16T07:17:53.385Z,79.36
2022-08-16T07:19:01.290Z,78.97
2022-08-16T07:20:30.124Z,78.77
2022-08-16T07:20:53.353Z,78.33
2022-08-16T07:21:59.500Z,78.53
2022-08-16T07:22:59.342Z,78.13
2022-08-16T07:23:56.822Z,77.83
2022-08-16T07:24:53.271Z,77.83
2022-08-16T07:25:53.276Z,77.89
2022-08-16T07:26:53.272Z,77.39
2022-08-16T07:27:53.220Z,77.29
2022-08-16T07:28:53.201Z,77.25
2022-08-16T07:29:55.457Z,76.12
2022-08-16T07:30:53.234Z,75.62
2022-08-16T07:31:53.866Z,75.42
2022-08-16T07:32:53.172Z,74.79
2022-08-16T07:33:54.961Z,74.58
2022-08-16T07:34:53.118Z,74.55
2022-08-16T07:35:53.133Z,73.45
2022-08-16T07:36:58.127Z,73.72
2022-08-16T07:37:53.095Z,74.02
2022-08-16T07:38:53.076Z,73.72
2022-08-16T07:39:54.671Z,73.82
2022-08-16T07:41:01.528Z,73.88
2022-08-16T07:41:53.157Z,72.15
2022-08-16T07:42:53.041Z,71.65
2022-08-16T07:43:53.026Z,71.12
2022-08-16T07:44:53.002Z,70.29
2022-08-16T07:45:53.467Z,69.89
2022-08-16T07:46:55.655Z,69.20
2022-08-16T07:47:52.951Z,69.59
2022-08-16T07:48:52.954Z,69.49
2022-08-16T07:49:57.913Z,68.79
2022-08-16T07:50:56.423Z,69.69
2022-08-16T07:51:54.337Z,69.66
2022-08-16T07:52:53.012Z,69.96
2022-08-16T07:54:02.343Z,68.43
2022-08-16T07:54:53.448Z,68.23
2022-08-16T07:55:52.896Z,67.93
2022-08-16T07:56:53.186Z,68.23
2022-08-16T07:58:00.652Z,68.23
2022-08-16T07:58:55.421Z,67.33
2022-08-16T07:59:52.799Z,67.40
2022-08-16T08:00:52.843Z,67.50
2022-08-16T08:01:53.093Z,66.88
2022-08-16T08:02:52.930Z,66.48
2022-08-16T08:03:52.759Z,65.45
2022-08-16T08:04:52.737Z,65.58
2022-08-16T08:05:52.709Z,66.58
2022-08-16T08:06:52.768Z,65.65
2022-08-16T08:07:52.770Z,64.95
2022-08-16T08:08:57.337Z,64.73
2022-08-16T08:09:52.673Z,64.92
2022-08-16T08:10:52.650Z,64.10
2022-08-16T08:11:59.497Z,63.80
2022-08-16T08:12:52.666Z,63.70
2022-08-16T08:13:52.605Z,64.10
2022-08-16T08:14:52.606Z,64.07
2022-08-16T08:15:53.369Z,63.37
2022-08-16T08:16:52.595Z,63.77
2022-08-16T08:17:52.598Z,63.87
2022-08-16T08:18:56.260Z,64.07
2022-08-16T08:19:53.011Z,63.97
2022-08-16T08:20:59.259Z,64.10
2022-08-16T08:21:58.872Z,65.32
2022-08-16T08:22:52.523Z,66.44
2022-08-16T08:23:52.509Z,66.15
2022-08-16T08:24:53.351Z,65.95
2022-08-16T08:25:53.736Z,67.41
2022-08-16T08:26:52.464Z,64.83
2022-08-16T08:27:57.504Z,64.53
2022-08-16T08:28:52.432Z,64.83
2022-08-16T08:30:49.945Z,65.42
2022-08-16T08:31:02.457Z,64.92
2022-08-16T08:31:52.390Z,64.79
2022-08-16T08:32:59.854Z,64.40
2022-08-16T08:33:52.359Z,64.70
2022-08-16T08:34:52.364Z,64.70
2022-08-16T08:35:52.328Z,64.73
2022-08-16T08:36:54.153Z,65.35
2022-08-16T08:37:55.280Z,65.28
2022-08-16T08:38:52.290Z,66.05
2022-08-16T08:39:55.168Z,65.55
2022-08-16T08:40:52.259Z,65.25
2022-08-16T08:41:52.245Z,65.75
2022-08-16T08:42:58.005Z,65.65
2022-08-16T08:43:52.291Z,64.62
2022-08-16T08:44:52.230Z,64.92
2022-08-16T08:45:53.001Z,65.19
2022-08-16T08:47:00.703Z,63.51
2022-08-16T08:47:58.476Z,64.30
2022-08-16T08:48:59.379Z,63.70
2022-08-16T08:49:55.573Z,63.93
2022-08-16T08:50:52.142Z,64.43
2022-08-16T08:51:52.115Z,63.80
2022-08-16T08:52:52.910Z,63.83
2022-08-16T08:53:57.547Z,63.13
2022-08-16T08:54:52.091Z,63.13
2022-08-16T08:55:58.869Z,62.84
2022-08-16T08:56:52.335Z,62.94
2022-08-16T08:57:52.086Z,64.06
2022-08-16T08:58:53.924Z,64.59
2022-08-16T08:59:52.010Z,64.59
2022-08-16T09:00:52.084Z,64.89
2022-08-16T09:01:57.190Z,63.86
2022-08-16T09:02:52.531Z,63.54
2022-08-16T09:03:52.009Z,61.82
2022-08-16T09:04:52.033Z,61.22
2022-08-16T09:05:51.997Z,61.22
2022-08-16T09:06:51.926Z,61.45
2022-08-16T09:08:00.587Z,61.12
2022-08-16T09:08:51.952Z,61.35
2022-08-16T09:10:06.437Z,62.15
2022-08-16T09:10:59.264Z,61.85
2022-08-16T09:12:04.025Z,61.85
2022-08-16T09:12:52.288Z,61.55
2022-08-16T09:13:51.833Z,61.42
2022-08-16T09:14:51.862Z,60.99
2022-08-16T09:15:51.825Z,60.40
2022-08-16T09:17:03.699Z,60.86
2022-08-16T09:17:54.687Z,60.64
2022-08-16T09:18:56.858Z,60.34
2022-08-16T09:19:55.691Z,59.35
2022-08-16T09:20:58.827Z,58.73
2022-08-16T09:21:56.235Z,58.50
2022-08-16T09:22:52.601Z,58.40
2022-08-16T09:23:52.949Z,57.58
2022-08-16T09:24:53.998Z,57.58
2022-08-16T09:25:51.710Z,59.12
2022-08-16T09:26:52.580Z,59.65
2022-08-16T09:27:57.770Z,60.17
2022-08-16T09:29:15.751Z,60.60
2022-08-16T09:30:00.378Z,61.10
2022-08-16T09:30:51.660Z,61.36
2022-08-16T09:31:53.338Z,60.77
2022-08-16T09:32:51.596Z,59.62
2022-08-16T09:33:52.155Z,58.90
2022-08-16T09:34:51.575Z,59.00
2022-08-16T09:35:53.519Z,58.57
2022-08-16T09:36:53.914Z,57.26
2022-08-16T09:38:00.539Z,56.74
2022-08-16T09:38:51.523Z,57.16
2022-08-16T09:39:51.549Z,57.16
2022-08-16T09:40:51.662Z,57.48
2022-08-16T09:41:53.112Z,58.11
2022-08-16T09:42:56.332Z,57.93
2022-08-16T09:44:00.251Z,58.73
2022-08-16T09:45:13.037Z,58.92
2022-08-16T09:45:51.449Z,58.40
2022-08-16T09:46:54.805Z,58.37
2022-08-16T09:47:56.616Z,57.09
2022-08-16T09:48:51.769Z,57.78
2022-08-16T09:49:51.374Z,57.18
2022-08-16T09:50:51.363Z,56.57
2022-08-16T09:51:51.350Z,56.63
2022-08-16T09:52:51.495Z,55.82
2022-08-16T09:53:53.864Z,55.20
2022-08-16T09:54:51.327Z,56.09
2022-08-16T09:55:51.288Z,55.30
2022-08-16T09:56:52.658Z,55.87
2022-08-16T09:57:52.992Z,55.18
2022-08-16T09:59:04.167Z,56.36
2022-08-16T09:59:56.123Z,55.57
2022-08-16T10:00:51.243Z,55.30
2022-08-16T10:01:51.625Z,55.22
2022-08-16T10:02:51.243Z,55.43
2022-08-16T10:04:02.640Z,56.34
2022-08-16T10:04:54.430Z,54.96
2022-08-16T10:05:51.197Z,55.75
2022-08-16T10:06:51.145Z,55.55
2022-08-16T10:07:51.500Z,54.96
2022-08-16T10:09:04.537Z,56.34
2022-08-16T10:09:54.574Z,55.26
2022-08-16T10:10:51.101Z,55.26
2022-08-16T10:11:51.111Z,55.65
2022-08-16T10:12:55.465Z,55.35
2022-08-16T10:13:51.046Z,56.37
2022-08-16T10:14:51.086Z,55.77
2022-08-16T10:15:54.841Z,56.37
2022-08-16T10:16:51.021Z,56.34
2022-08-16T10:18:01.561Z,55.35
2022-08-16T10:19:02.352Z,54.96
2022-08-16T10:19:51.012Z,55.94
2022-08-16T10:20:50.953Z,56.27
2022-08-16T10:21:56.211Z,55.58
2022-08-16T10:22:58.851Z,55.68
2022-08-16T10:23:50.930Z,55.68
2022-08-16T10:24:59.635Z,56.27
2022-08-16T10:27:16.309Z,56.63
2022-08-16T10:27:29.931Z,55.82
2022-08-16T10:27:56.877Z,53.85
2022-08-16T10:28:50.862Z,53.62
2022-08-16T10:30:00.503Z,52.44
2022-08-16T10:30:58.972Z,52.63
2022-08-16T10:31:53.650Z,52.93
2022-08-16T10:32:50.836Z,53.12
2022-08-16T10:33:50.798Z,53.57
2022-08-16T10:34:51.374Z,54.56
2022-08-16T10:35:52.460Z,54.59
2022-08-16T10:36:54.110Z,54.79
2022-08-16T10:37:52.396Z,54.06
2022-08-16T10:38:52.212Z,54.44
2022-08-16T10:39:50.838Z,53.92
2022-08-16T10:40:50.745Z,53.33
2022-08-16T10:41:50.698Z,53.33
2022-08-16T10:42:50.674Z,53.64
2022-08-16T10:43:50.673Z,53.81
2022-08-16T10:44:54.824Z,53.62
2022-08-16T10:46:00.028Z,53.81
2022-08-16T10:46:50.675Z,54.11
2022-08-16T10:48:00.746Z,53.50
2022-08-16T10:48:50.606Z,53.59
2022-08-16T10:49:50.590Z,54.19
2022-08-16T10:50:50.567Z,53.99
2022-08-16T10:52:02.482Z,53.37
2022-08-16T10:52:51.847Z,52.01
2022-08-16T10:53:50.546Z,52.31
2022-08-16T10:55:57.599Z,52.41
2022-08-16T10:56:56.162Z,53.10
2022-08-16T10:57:50.670Z,53.20
2022-08-16T10:58:50.461Z,53.72
2022-08-16T10:59:53.227Z,53.69
2022-08-16T11:00:57.215Z,54.19
2022-08-16T11:02:58.460Z,53.00
2022-08-16T11:03:54.514Z,53.47
2022-08-16T11:05:08.191Z,52.78
2022-08-16T11:06:06.246Z,53.08
2022-08-16T11:08:05.411Z,53.17
2022-08-16T11:09:21.011Z,53.37
2022-08-16T11:09:50.398Z,52.61
2022-08-16T11:11:04.806Z,53.30
2022-08-16T11:12:52.800Z,53.69
2022-08-16T11:13:59.056Z,53.69
2022-08-16T11:15:55.425Z,52.78
2022-08-16T11:17:10.986Z,51.99
2022-08-16T11:18:48.935Z,51.89
2022-08-16T11:19:13.222Z,52.09
2022-08-16T11:20:50.575Z,52.58
2022-08-16T11:22:50.155Z,51.97
2022-08-16T11:23:58.257Z,50.68
2022-08-16T11:25:11.995Z,51.30
2022-08-16T11:26:07.579Z,51.52
2022-08-16T11:27:18.725Z,52.11
2022-08-16T11:27:50.356Z,52.31
2022-08-16T11:29:50.117Z,52.31
2022-08-16T11:30:57.273Z,52.73
2022-08-16T11:31:53.989Z,52.93
2022-08-16T11:32:50.174Z,52.73
2022-08-16T11:33:53.441Z,52.63
2022-08-16T11:35:10.217Z,52.63
2022-08-16T11:36:53.736Z,51.72
2022-08-16T11:38:05.945Z,52.09
2022-08-16T11:38:57.126Z,51.79
2022-08-16T11:39:49.981Z,52.09
2022-08-16T11:40:52.091Z,51.10
2022-08-16T11:41:53.173Z,51.50
2022-08-16T11:42:49.922Z,52.68
2022-08-16T11:43:49.883Z,51.40
2022-08-16T11:44:56.061Z,51.40
2022-08-16T11:45:54.266Z,50.98
2022-08-16T11:46:49.862Z,50.49
2022-08-16T11:47:50.065Z,50.98
2022-08-16T11:48:49.839Z,50.09
2022-08-16T11:49:50.652Z,50.29
2022-08-16T11:50:49.799Z,50.49
2022-08-16T11:51:49.812Z,50.19
2022-08-16T11:52:49.762Z,49.60
2022-08-16T11:53:49.775Z,48.88
2022-08-16T11:54:53.830Z,49.30
2022-08-16T11:55:50.510Z,51.18
2022-08-16T11:56:52.558Z,50.36
2022-08-16T11:57:49.868Z,49.77
2022-08-16T11:58:51.767Z,49.97
2022-08-16T11:59:49.708Z,49.77
2022-08-16T12:00:51.314Z,49.60
2022-08-16T12:01:55.518Z,50.09
2022-08-16T12:02:49.646Z,51.79
2022-08-16T12:03:49.728Z,51.77
2022-08-16T12:04:52.055Z,51.77
2022-08-16T12:05:51.754Z,50.98
2022-08-16T12:06:49.958Z,50.46
2022-08-16T12:07:49.728Z,50.36
2022-08-16T12:08:49.562Z,50.26
2022-08-16T12:09:49.650Z,49.57
2022-08-16T12:10:49.550Z,49.26
2022-08-16T12:11:52.393Z,49.75
2022-08-16T12:12:49.535Z,49.35
2022-08-16T12:13:49.495Z,49.67
2022-08-16T12:14:52.139Z,50.16
2022-08-16T12:15:49.472Z,50.46
2022-08-16T12:16:55.707Z,49.16
2022-08-16T12:17:49.712Z,49.16
2022-08-16T12:19:49.464Z,48.25
2022-08-16T12:20:49.441Z,48.14
2022-08-16T12:21:58.859Z,48.54
2022-08-16T12:22:49.479Z,48.25
2022-08-16T12:23:49.443Z,48.22
2022-08-16T12:24:51.870Z,47.56
2022-08-16T12:25:49.330Z,47.75
2022-08-16T12:26:49.324Z,47.06
2022-08-16T12:27:49.903Z,47.24
2022-08-16T12:28:55.183Z,47.75
2022-08-16T12:29:49.306Z,47.14
2022-08-16T12:30:49.307Z,46.97
2022-08-16T12:32:00.450Z,47.26
2022-08-16T12:32:52.978Z,47.78
2022-08-16T12:33:49.253Z,48.59
2022-08-16T12:34:52.667Z,48.29
2022-08-16T12:35:49.252Z,48.00
2022-08-16T12:36:49.214Z,46.99
2022-08-16T12:37:49.217Z,46.89
2022-08-16T12:38:49.272Z,47.28
2022-08-16T12:39:51.273Z,47.38
2022-08-16T12:40:49.175Z,48.07
2022-08-16T12:41:49.115Z,47.26
2022-08-16T12:42:52.437Z,47.66
2022-08-16T12:43:49.114Z,46.67
2022-08-16T12:44:49.100Z,46.28
2022-08-16T12:45:49.117Z,45.96
2022-08-16T12:46:49.089Z,45.67
2022-08-16T12:47:49.179Z,45.47
2022-08-16T12:48:49.052Z,46.25
2022-08-16T12:49:49.011Z,45.17
2022-08-16T12:50:49.396Z,44.98
2022-08-16T12:51:58.580Z,45.07
2022-08-16T12:52:52.890Z,44.98
2022-08-16T12:53:49.705Z,45.56
2022-08-16T12:54:55.052Z,44.98
2022-08-16T12:55:48.953Z,45.17
2022-08-16T12:56:50.444Z,46.18
2022-08-16T12:57:58.520Z,46.75
2022-08-16T12:58:51.538Z,46.08
2022-08-16T12:59:48.889Z,47.36
2022-08-16T13:00:48.919Z,46.28
2022-08-16T13:01:50.231Z,45.76